Chefornak, Alaska
Current Conditions -  °F | °C
As of 10:56 PM on Monday 20 Oct 2014 (Local Time) from PAKI Reporting Station
Light Snow Light Snow  
Wind Chill: 16°   Ceiling: 2100
Heat Index: 29°   Visibility: 3mi
Dew Point: 26°   Wind: 20mph
Humidity: 88%   Direction: 310°NW
Pressure: 29.28"   Gusts: NA
Location:  60.16°N, 164.27°W
Report Text: PAKI 210656Z AUTO 31017KT 3SM -SN BR FEW004 BKN021 OVC042 M02/M03 A2928 RMK AO2 TSNO T10161033 BKN V SCT P0000 SLP918 $
Loading
Personal Weather Stations






























Interactive Weather Map
Tropical Storm Tracking
New forecast layout! Learn more

10-Day Weather Forecast

Advertisements
Track Severe Weather on mobile